createdAt,value
2018-10-11T00:00:12.647Z,23.13
2018-10-11T00:02:41.623Z,22.60
2018-10-11T00:05:10.227Z,23.37
2018-10-11T00:07:38.712Z,22.40
2018-10-11T00:10:07.684Z,22.93
2018-10-11T00:12:36.179Z,22.77
2018-10-11T00:15:04.567Z,23.17
2018-10-11T00:17:33.868Z,23.17
2018-10-11T00:20:02.589Z,24.83
2018-10-11T00:22:31.011Z,25.03
2018-10-11T00:24:59.640Z,22.30
2018-10-11T00:27:28.344Z,23.17
2018-10-11T00:29:57.868Z,23.17
2018-10-11T00:32:26.578Z,21.70
2018-10-11T00:34:55.178Z,22.67
2018-10-11T00:37:23.654Z,23.87
2018-10-11T00:39:52.275Z,22.70
2018-10-11T00:42:21.001Z,22.70
2018-10-11T00:44:49.416Z,24.47
2018-10-11T00:47:18.044Z,21.67
2018-10-11T00:49:46.861Z,22.77
2018-10-11T00:52:15.418Z,24.43
2018-10-11T00:54:44.440Z,23.13
2018-10-11T00:57:14.352Z,23.60
2018-10-11T00:59:42.737Z,24.50
2018-10-11T01:02:11.347Z,25.20
2018-10-11T01:04:40.312Z,23.77
2018-10-11T01:07:09.306Z,24.77
2018-10-11T01:09:37.893Z,25.47
2018-10-11T01:12:06.614Z,26.03
2018-10-11T01:14:35.256Z,25.07
2018-10-11T01:17:03.986Z,25.07
2018-10-11T01:19:32.483Z,25.33
2018-10-11T01:22:01.323Z,25.33
2018-10-11T01:24:29.911Z,24.60
2018-10-11T01:26:58.612Z,25.17
2018-10-11T01:29:27.373Z,25.27
2018-10-11T01:31:56.364Z,26.17
2018-10-11T01:34:24.838Z,25.07
2018-10-11T01:36:53.492Z,25.03
2018-10-11T01:39:22.433Z,24.80
2018-10-11T01:41:50.834Z,26.73
2018-10-11T01:44:19.443Z,27.57
2018-10-11T01:46:48.384Z,25.20
2018-10-11T01:49:16.865Z,25.60
2018-10-11T01:51:45.559Z,26.43
2018-10-11T01:54:14.255Z,26.90
2018-10-11T01:56:42.840Z,25.10
2018-10-11T01:59:11.346Z,25.77
2018-10-11T02:01:40.386Z,25.37
2018-10-11T02:04:09.299Z,26.43
2018-10-11T02:06:37.890Z,24.97
2018-10-11T02:09:06.755Z,25.83
2018-10-11T02:11:35.439Z,27.80
2018-10-11T02:14:03.910Z,25.43
2018-10-11T02:16:32.536Z,24.60
2018-10-11T02:19:01.014Z,26.50
2018-10-11T02:21:29.631Z,25.00
2018-10-11T02:23:58.379Z,25.53
2018-10-11T02:26:27.064Z,27.13
2018-10-11T02:28:55.938Z,25.67
2018-10-11T02:31:24.999Z,26.07
2018-10-11T02:33:53.680Z,27.47
2018-10-11T02:36:22.912Z,27.17
2018-10-11T02:38:51.620Z,27.53
2018-10-11T02:41:25.431Z,27.47
2018-10-11T02:43:54.733Z,27.87
2018-10-11T02:46:23.391Z,27.00
2018-10-11T02:48:52.095Z,25.93
2018-10-11T02:51:20.614Z,26.70
2018-10-11T02:53:49.010Z,26.37
2018-10-11T02:56:19.596Z,27.27
2018-10-11T02:58:59.839Z,26.80
2018-10-11T03:01:29.260Z,29.43
2018-10-11T03:04:01.604Z,28.37
2018-10-11T03:06:32.426Z,29.27
2018-10-11T03:09:00.929Z,27.33
2018-10-11T03:11:29.556Z,29.10
2018-10-11T03:13:58.064Z,29.50
2018-10-11T03:16:26.432Z,28.70
2018-10-11T03:18:55.700Z,29.67
2018-10-11T03:21:24.264Z,29.70
2018-10-11T03:23:52.743Z,28.77
2018-10-11T03:26:21.665Z,31.63
2018-10-11T03:28:50.307Z,28.50
2018-10-11T03:31:19.118Z,28.40
2018-10-11T03:33:47.731Z,26.50
2018-10-11T03:36:16.424Z,28.03
2018-10-11T03:38:45.290Z,30.07
2018-10-11T03:41:13.924Z,29.90
2018-10-11T03:43:44.228Z,29.67
2018-10-11T03:46:13.093Z,29.97
2018-10-11T03:48:41.787Z,28.67
2018-10-11T03:51:15.781Z,30.07
2018-10-11T03:53:44.486Z,27.30
2018-10-11T03:56:13.140Z,27.53
2018-10-11T03:58:41.749Z,29.07
2018-10-11T04:01:10.561Z,26.53
2018-10-11T04:03:39.259Z,28.33
2018-10-11T04:06:07.952Z,28.17
2018-10-11T04:08:37.197Z,29.30
2018-10-11T04:11:06.116Z,29.43
2018-10-11T04:13:34.804Z,28.47
2018-10-11T04:16:03.518Z,27.90
2018-10-11T04:18:32.199Z,28.13
2018-10-11T04:21:00.946Z,28.17
2018-10-11T04:23:30.612Z,28.07
2018-10-11T04:25:59.864Z,29.37
2018-10-11T04:28:29.362Z,30.50
2018-10-11T04:30:59.076Z,27.83
2018-10-11T04:33:28.782Z,27.20
2018-10-11T04:35:59.169Z,27.53
2018-10-11T04:38:28.360Z,27.10
2018-10-11T04:40:57.186Z,28.13
2018-10-11T04:43:25.795Z,27.67
2018-10-11T04:45:54.755Z,27.60
2018-10-11T04:48:23.449Z,28.47
2018-10-11T04:50:52.169Z,27.23
2018-10-11T04:53:20.690Z,26.80
2018-10-11T04:55:49.079Z,27.87
2018-10-11T04:58:17.991Z,26.87
2018-10-11T05:00:46.696Z,28.97
2018-10-11T05:03:15.392Z,27.70
2018-10-11T05:05:43.888Z,27.23
2018-10-11T05:08:12.892Z,26.97
2018-10-11T05:10:41.478Z,27.07
2018-10-11T05:13:10.221Z,27.77
2018-10-11T05:15:39.190Z,27.93
2018-10-11T05:18:07.902Z,27.47
2018-10-11T05:20:36.779Z,26.40
2018-10-11T05:23:05.972Z,26.93
2018-10-11T05:25:34.484Z,26.83
2018-10-11T05:28:03.276Z,27.30
2018-10-11T05:30:31.849Z,26.73
2018-10-11T05:33:00.363Z,24.90
2018-10-11T05:35:29.116Z,26.63
2018-10-11T05:37:57.839Z,28.33
2018-10-11T05:40:26.417Z,27.37
2018-10-11T05:42:54.990Z,25.50
2018-10-11T05:45:24.155Z,26.53
2018-10-11T05:47:52.995Z,26.87
2018-10-11T05:50:21.729Z,25.57
2018-10-11T05:52:50.488Z,24.93
2018-10-11T05:55:19.228Z,26.93
2018-10-11T05:57:48.472Z,26.23
2018-10-11T06:00:16.980Z,24.03
2018-10-11T06:02:58.052Z,26.77
2018-10-11T06:05:27.383Z,26.43
2018-10-11T06:07:56.572Z,25.33
2018-10-11T06:10:25.483Z,26.50
2018-10-11T06:12:54.228Z,25.73
2018-10-11T06:15:23.144Z,25.63
2018-10-11T06:17:51.830Z,26.77
2018-10-11T06:20:20.252Z,25.50
2018-10-11T06:22:49.110Z,26.33
2018-10-11T06:25:17.447Z,25.83
2018-10-11T06:27:46.111Z,26.37
2018-10-11T06:30:14.982Z,27.23
2018-10-11T06:32:44.924Z,25.87
2018-10-11T06:35:14.589Z,26.27
2018-10-11T06:37:43.427Z,25.90
2018-10-11T06:40:12.792Z,26.87
2018-10-11T06:42:41.425Z,25.07
2018-10-11T06:45:10.675Z,26.53
2018-10-11T06:47:39.870Z,26.07
2018-10-11T06:50:08.557Z,26.80
2018-10-11T06:52:36.867Z,27.70
2018-10-11T06:55:06.028Z,25.90
2018-10-11T06:57:35.111Z,27.03
2018-10-11T07:00:04.409Z,26.87
2018-10-11T07:02:32.892Z,25.97
2018-10-11T07:05:01.526Z,25.77
2018-10-11T07:07:30.207Z,27.80
2018-10-11T07:09:58.964Z,28.23
2018-10-11T07:12:27.378Z,27.63
2018-10-11T07:14:56.956Z,28.20
2018-10-11T07:17:25.947Z,26.97
2018-10-11T07:19:54.946Z,25.70
2018-10-11T07:22:23.340Z,25.73
2018-10-11T07:24:51.939Z,25.73
2018-10-11T07:27:20.906Z,25.17
2018-10-11T07:29:49.819Z,26.00
2018-10-11T07:32:18.578Z,24.87
2018-10-11T07:34:47.214Z,25.67
2018-10-11T07:37:15.938Z,25.07
2018-10-11T07:39:44.416Z,24.43
2018-10-11T07:42:13.156Z,25.77
2018-10-11T07:44:41.558Z,30.37
2018-10-11T07:47:10.236Z,24.40
2018-10-11T07:49:39.070Z,25.23
2018-10-11T07:52:08.257Z,24.50
2018-10-11T07:54:36.733Z,23.27
2018-10-11T07:57:05.469Z,22.83
2018-10-11T07:59:34.100Z,22.60
2018-10-11T08:02:03.020Z,23.37
2018-10-11T08:04:31.605Z,23.17
2018-10-11T08:07:00.098Z,21.77
2018-10-11T08:09:28.567Z,22.23
2018-10-11T08:11:57.447Z,23.50
2018-10-11T08:14:25.699Z,21.23
2018-10-11T08:19:28.252Z,21.13
2018-10-11T08:21:57.018Z,21.57
2018-10-11T08:24:26.395Z,21.80
2018-10-11T08:26:54.851Z,21.93
2018-10-11T08:29:23.175Z,21.27
2018-10-11T08:31:52.072Z,21.53
2018-10-11T08:34:20.788Z,22.03
2018-10-11T08:36:49.482Z,20.80
2018-10-11T08:39:18.181Z,19.80
2018-10-11T08:41:46.836Z,20.63
2018-10-11T08:44:15.556Z,20.57
2018-10-11T08:46:44.207Z,20.50
2018-10-11T08:49:12.995Z,19.43
2018-10-11T08:51:41.663Z,20.13
2018-10-11T08:54:15.669Z,19.53
2018-10-11T08:56:44.070Z,19.60
2018-10-11T08:59:12.720Z,18.53
2018-10-11T09:01:41.550Z,18.27
2018-10-11T09:04:09.965Z,17.73
2018-10-11T09:06:38.332Z,17.33
2018-10-11T09:09:08.027Z,17.67
2018-10-11T09:11:36.566Z,16.10
2018-10-11T09:14:05.885Z,17.00
2018-10-11T09:16:34.927Z,16.43
2018-10-11T09:19:03.422Z,16.67
2018-10-11T09:21:32.404Z,16.70
2018-10-11T09:24:01.272Z,15.90
2018-10-11T09:26:29.867Z,16.80
2018-10-11T09:28:58.565Z,16.67
2018-10-11T09:31:27.133Z,15.78
2018-10-11T09:33:55.745Z,15.58
2018-10-11T09:36:24.481Z,15.72
2018-10-11T09:38:53.016Z,15.75
2018-10-11T09:41:21.422Z,15.23
2018-10-11T09:43:49.809Z,17.37
2018-10-11T09:46:18.210Z,16.48
2018-10-11T09:48:46.891Z,15.80
2018-10-11T09:51:15.532Z,14.95
2018-10-11T09:53:44.246Z,15.35
2018-10-11T09:56:12.953Z,15.78
2018-10-11T09:58:41.424Z,15.08
2018-10-11T10:01:15.502Z,14.50
2018-10-11T10:03:44.214Z,15.78
2018-10-11T10:06:12.902Z,15.20
2018-10-11T10:08:41.736Z,14.98
2018-10-11T10:11:10.380Z,15.15
2018-10-11T10:13:39.072Z,16.07
2018-10-11T10:16:07.580Z,15.30
2018-10-11T10:18:36.190Z,14.45
2018-10-11T10:21:04.964Z,15.40
2018-10-11T10:23:33.641Z,15.23
2018-10-11T10:26:02.335Z,15.00
2018-10-11T10:28:30.806Z,14.90
2018-10-11T10:30:59.303Z,15.35
2018-10-11T10:33:27.699Z,14.43
2018-10-11T10:35:56.301Z,15.03
2018-10-11T10:38:25.044Z,13.98
2018-10-11T10:40:53.615Z,14.53
2018-10-11T10:43:22.232Z,14.00
2018-10-11T10:45:50.940Z,13.95
2018-10-11T10:48:19.431Z,14.10
2018-10-11T10:50:48.040Z,14.38
2018-10-11T10:53:16.755Z,13.75
2018-10-11T10:55:45.460Z,17.87
2018-10-11T10:58:14.160Z,14.50
2018-10-11T11:00:42.656Z,13.55
2018-10-11T11:03:11.267Z,14.07
2018-10-11T11:05:39.760Z,13.68
2018-10-11T11:08:08.164Z,13.18
2018-10-11T11:10:36.767Z,14.07
2018-10-11T11:13:05.521Z,13.40
2018-10-11T11:15:34.216Z,14.33
2018-10-11T11:18:02.712Z,13.65
2018-10-11T11:20:31.351Z,13.08
2018-10-11T11:23:00.151Z,13.35
2018-10-11T11:25:28.844Z,13.83
2018-10-11T11:27:57.546Z,13.83
2018-10-11T11:30:26.260Z,13.40
2018-10-11T11:32:55.090Z,14.33
2018-10-11T11:35:23.520Z,13.95
2018-10-11T11:37:52.144Z,13.40
2018-10-11T11:40:20.668Z,13.40
2018-10-11T11:42:49.034Z,14.07
2018-10-11T11:45:17.445Z,13.55
2018-10-11T11:47:46.060Z,13.10
2018-10-11T11:50:14.778Z,13.62
2018-10-11T11:52:43.311Z,13.00
2018-10-11T11:55:11.924Z,13.65
2018-10-11T11:57:40.617Z,13.58
2018-10-11T12:00:09.103Z,13.50
2018-10-11T12:02:37.785Z,13.20
2018-10-11T12:05:06.457Z,13.48
2018-10-11T12:07:35.151Z,13.15
2018-10-11T12:10:03.652Z,12.75
2018-10-11T12:13:08.703Z,13.10
2018-10-11T12:15:38.058Z,13.15
2018-10-11T12:18:07.138Z,12.73
2018-10-11T12:20:36.943Z,12.43
2018-10-11T12:23:06.738Z,13.70
2018-10-11T12:25:35.557Z,12.47
2018-10-11T12:28:03.968Z,12.93
2018-10-11T12:30:32.580Z,12.82
2018-10-11T12:33:01.071Z,12.28
2018-10-11T12:35:30.084Z,12.33
2018-10-11T12:37:58.571Z,12.63
2018-10-11T12:40:26.951Z,13.35
2018-10-11T12:42:55.420Z,13.58
2018-10-11T12:45:23.873Z,13.05
2018-10-11T12:47:52.220Z,13.03
2018-10-11T12:50:20.631Z,13.60
2018-10-11T12:52:49.132Z,12.93
2018-10-11T12:55:17.736Z,13.75
2018-10-11T12:57:46.447Z,13.83
2018-10-11T13:00:16.220Z,13.17
2018-10-11T13:02:45.048Z,13.80
2018-10-11T13:05:13.699Z,13.07
2018-10-11T13:07:42.790Z,12.77
2018-10-11T13:10:11.269Z,12.73
2018-10-11T13:12:39.743Z,12.73
2018-10-11T13:15:08.505Z,13.37
2018-10-11T13:17:41.819Z,12.47
2018-10-11T13:20:05.577Z,13.27
2018-10-11T13:22:34.199Z,13.80
2018-10-11T13:25:02.940Z,13.13
2018-10-11T13:27:31.434Z,12.70
2018-10-11T13:29:59.838Z,12.37
2018-10-11T13:32:28.428Z,12.80
2018-10-11T13:34:56.957Z,13.37
2018-10-11T13:37:25.315Z,12.87
2018-10-11T13:39:56.992Z,12.40
2018-10-11T13:42:22.617Z,12.20
2018-10-11T13:44:51.083Z,12.87
2018-10-11T13:47:19.515Z,11.70
2018-10-11T13:49:48.112Z,12.83
2018-10-11T13:52:22.571Z,12.27
2018-10-11T13:54:50.583Z,12.23
2018-10-11T13:57:22.783Z,12.17
2018-10-11T13:59:47.681Z,11.73
2018-10-11T14:02:16.571Z,11.77
2018-10-11T14:04:45.056Z,12.93
2018-10-11T14:07:13.434Z,12.23
2018-10-11T14:09:42.095Z,11.80
2018-10-11T14:12:15.880Z,12.23
2018-10-11T14:14:44.364Z,12.00
2018-10-11T14:17:12.964Z,12.30
2018-10-11T14:19:41.465Z,11.77
2018-10-11T14:22:09.934Z,12.43
2018-10-11T14:24:38.540Z,12.30
2018-10-11T14:27:07.019Z,11.63
2018-10-11T14:29:35.427Z,11.87
2018-10-11T14:32:04.140Z,11.83
2018-10-11T14:34:32.823Z,12.83
2018-10-11T14:37:01.522Z,11.70
2018-10-11T14:39:29.924Z,12.37
2018-10-11T14:41:58.682Z,12.00
2018-10-11T14:44:27.227Z,12.20
2018-10-11T14:46:55.953Z,12.30
2018-10-11T14:49:24.402Z,12.30
2018-10-11T14:51:52.840Z,13.23
2018-10-11T14:54:21.221Z,11.33
2018-10-11T14:56:49.840Z,12.27
2018-10-11T14:59:18.548Z,12.57
2018-10-11T15:01:47.023Z,12.33
2018-10-11T15:04:15.417Z,12.97
2018-10-11T15:06:44.332Z,12.53
2018-10-11T15:09:13.027Z,12.80
2018-10-11T15:11:41.680Z,12.80
2018-10-11T15:14:10.223Z,13.97
2018-10-11T15:16:38.928Z,14.97
2018-10-11T15:19:07.407Z,13.53
2018-10-11T15:21:35.819Z,13.67
2018-10-11T15:24:04.216Z,12.90
2018-10-11T15:26:32.830Z,12.20
2018-10-11T15:29:01.323Z,12.10
2018-10-11T15:31:29.773Z,12.23
2018-10-11T15:33:58.452Z,11.43
2018-10-11T15:36:27.169Z,12.20
2018-10-11T15:38:55.880Z,12.27
2018-10-11T15:41:24.422Z,11.40
2018-10-11T15:43:53.038Z,12.77
2018-10-11T15:46:21.527Z,12.27
2018-10-11T15:48:50.248Z,11.40
2018-10-11T15:51:19.032Z,11.53
2018-10-11T15:53:47.509Z,10.83
2018-10-11T15:56:16.156Z,12.70
2018-10-11T15:58:44.642Z,11.53
2018-10-11T16:01:13.245Z,12.07
2018-10-11T16:03:41.727Z,12.03
2018-10-11T16:06:10.148Z,11.97
2018-10-11T16:08:38.756Z,12.57
2018-10-11T16:11:07.315Z,11.17
2018-10-11T16:13:35.948Z,11.40
2018-10-11T16:16:04.478Z,11.37
2018-10-11T16:18:33.070Z,11.87
2018-10-11T16:21:01.856Z,11.53
2018-10-11T16:23:30.543Z,11.67
2018-10-11T16:25:59.035Z,11.50
2018-10-11T16:28:27.463Z,12.40
2018-10-11T16:30:56.168Z,11.87
2018-10-11T16:33:24.654Z,11.67
2018-10-11T16:35:53.354Z,11.50
2018-10-11T16:38:22.049Z,11.57
2018-10-11T16:40:50.552Z,12.30
2018-10-11T16:43:19.147Z,12.53
2018-10-11T16:45:47.623Z,12.03
2018-10-11T16:48:16.005Z,11.47
2018-10-11T16:50:44.419Z,12.30
2018-10-11T16:53:13.031Z,12.00
2018-10-11T16:55:41.514Z,11.73
2018-10-11T16:58:10.206Z,12.67
2018-10-11T17:00:38.870Z,12.20
2018-10-11T17:03:07.362Z,12.00
2018-10-11T17:05:35.983Z,12.23
2018-10-11T17:08:04.459Z,11.90
2018-10-11T17:10:33.051Z,11.53
2018-10-11T17:13:01.551Z,11.73
2018-10-11T17:15:29.961Z,12.30
2018-10-11T17:17:58.563Z,12.50
2018-10-11T17:20:27.066Z,12.43
2018-10-11T17:22:55.539Z,14.50
2018-10-11T17:25:23.926Z,13.83
2018-10-11T17:27:52.564Z,17.03
2018-10-11T17:30:21.054Z,22.17
2018-10-11T17:32:49.515Z,19.63
2018-10-11T17:35:18.227Z,15.30
2018-10-11T17:37:46.831Z,17.03
2018-10-11T17:40:15.311Z,14.20
2018-10-11T17:42:44.176Z,12.93
2018-10-11T17:45:12.790Z,13.20
2018-10-11T17:47:41.288Z,14.17
2018-10-11T17:50:09.717Z,13.37
2018-10-11T17:52:38.304Z,13.17
2018-10-11T17:55:07.004Z,13.27
2018-10-11T17:57:35.522Z,13.27
2018-10-11T18:00:03.924Z,13.07
2018-10-11T18:02:32.522Z,12.27
2018-10-11T18:05:01.560Z,13.20
2018-10-11T18:07:30.251Z,13.13
2018-10-11T18:09:58.977Z,13.17
2018-10-11T18:12:27.453Z,12.00
2018-10-11T18:14:55.844Z,12.20
2018-10-11T18:17:25.067Z,12.37
2018-10-11T18:19:53.464Z,12.27
2018-10-11T18:22:22.152Z,12.20
2018-10-11T18:24:50.646Z,11.70
2018-10-11T18:27:19.524Z,12.93
2018-10-11T18:29:48.224Z,13.47
2018-10-11T18:32:17.066Z,13.47
2018-10-11T18:34:45.573Z,13.13
2018-10-11T18:37:14.194Z,13.50
2018-10-11T18:39:42.898Z,13.60
2018-10-11T18:42:11.475Z,12.47
2018-10-11T18:44:39.922Z,12.93
2018-10-11T18:47:08.492Z,12.57
2018-10-11T18:49:37.206Z,12.47
2018-10-11T18:52:05.803Z,12.87
2018-10-11T18:54:34.413Z,12.33
2018-10-11T18:57:03.148Z,12.23
2018-10-11T18:59:31.632Z,12.47
2018-10-11T19:02:00.015Z,13.77
2018-10-11T19:04:28.418Z,13.13
2018-10-11T19:06:56.808Z,12.47
2018-10-11T19:09:25.199Z,12.77
2018-10-11T19:11:53.614Z,12.07
2018-10-11T19:14:22.219Z,13.20
2018-10-11T19:16:50.920Z,13.13
2018-10-11T19:19:19.431Z,13.90
2018-10-11T19:21:58.100Z,13.90
2018-10-11T19:24:26.604Z,14.03
2018-10-11T19:26:55.216Z,14.03
2018-10-11T19:29:23.922Z,12.80
2018-10-11T19:31:52.639Z,13.97
2018-10-11T19:34:21.146Z,14.07
2018-10-11T19:36:49.539Z,15.13
2018-10-11T19:39:18.201Z,13.63
2018-10-11T19:41:46.691Z,13.83
2018-10-11T19:44:15.084Z,13.90
2018-10-11T19:46:43.500Z,13.00
2018-10-11T19:49:12.099Z,13.13
2018-10-11T19:51:40.820Z,12.73
2018-10-11T19:54:09.331Z,12.73
2018-10-11T19:56:38.137Z,13.37
2018-10-11T19:59:06.539Z,13.53
2018-10-11T20:01:35.260Z,13.30
2018-10-11T20:04:03.963Z,13.50
2018-10-11T20:06:32.446Z,12.63
2018-10-11T20:09:01.055Z,13.87
2018-10-11T20:11:29.604Z,13.57
2018-10-11T20:13:58.211Z,12.80
2018-10-11T20:16:26.921Z,13.53
2018-10-11T20:18:55.402Z,13.63
2018-10-11T20:21:24.032Z,13.20
2018-10-11T20:23:52.732Z,13.40
2018-10-11T20:26:21.214Z,13.67
2018-10-11T20:28:49.607Z,13.43
2018-10-11T20:31:18.241Z,12.80
2018-10-11T20:33:46.943Z,13.57
2018-10-11T20:36:15.886Z,13.27
2018-10-11T20:38:44.614Z,13.87
2018-10-11T20:41:13.316Z,13.70
2018-10-11T20:43:41.929Z,13.90
2018-10-11T20:46:10.419Z,13.80
2018-10-11T20:48:39.044Z,13.57
2018-10-11T20:51:07.615Z,12.73
2018-10-11T20:53:36.626Z,13.53
2018-10-11T20:56:05.167Z,13.73
2018-10-11T20:58:33.626Z,14.43
2018-10-11T21:01:02.304Z,14.30
2018-10-11T21:03:31.003Z,14.37
2018-10-11T21:05:59.529Z,13.67
2018-10-11T21:08:28.139Z,14.60
2018-10-11T21:10:56.927Z,15.53
2018-10-11T21:13:26.110Z,14.70
2018-10-11T21:15:54.747Z,14.47
2018-10-11T21:18:23.240Z,14.27
2018-10-11T21:20:51.651Z,14.53
2018-10-11T21:23:20.070Z,14.53
2018-10-11T21:25:48.672Z,14.20
2018-10-11T21:28:17.282Z,15.40
2018-10-11T21:30:45.596Z,14.90
2018-10-11T21:33:14.298Z,14.93
2018-10-11T21:35:42.992Z,14.43
2018-10-11T21:38:11.493Z,15.63
2018-10-11T21:40:40.091Z,15.60
2018-10-11T21:43:08.783Z,14.23
2018-10-11T21:45:37.278Z,14.10
2018-10-11T21:48:05.762Z,15.50
2018-10-11T21:50:34.299Z,14.93
2018-10-11T21:53:12.803Z,15.90
2018-10-11T21:55:41.428Z,17.20
2018-10-11T21:58:09.943Z,15.60
2018-10-11T22:00:43.895Z,15.83
2018-10-11T22:03:12.611Z,15.67
2018-10-11T22:05:41.303Z,15.43
2018-10-11T22:08:10.228Z,14.97
2018-10-11T22:10:39.185Z,16.37
2018-10-11T22:13:07.675Z,15.73
2018-10-11T22:15:36.312Z,16.03
2018-10-11T22:18:04.799Z,17.10
2018-10-11T22:20:33.188Z,16.80
2018-10-11T22:23:01.626Z,17.37
2018-10-11T22:25:30.459Z,17.17
2018-10-11T22:27:59.178Z,16.47
2018-10-11T22:30:27.639Z,16.30
2018-10-11T22:32:56.099Z,15.10
2018-10-11T22:35:25.307Z,16.20
2018-10-11T22:37:55.552Z,15.30
2018-10-11T22:40:24.211Z,16.53
2018-10-11T22:42:53.099Z,16.27
2018-10-11T22:45:21.595Z,18.10
2018-10-11T22:47:50.008Z,19.53
2018-10-11T22:50:18.642Z,20.77
2018-10-11T22:52:47.415Z,17.40
2018-10-11T22:55:16.123Z,18.77
2018-10-11T22:57:44.607Z,17.40
2018-10-11T23:00:13.230Z,17.07
2018-10-11T23:02:41.727Z,18.87
2018-10-11T23:05:10.327Z,17.90
2018-10-11T23:07:39.032Z,16.93
2018-10-11T23:10:07.519Z,17.10
2018-10-11T23:12:36.136Z,16.33
2018-10-11T23:15:05.130Z,15.47
2018-10-11T23:17:34.353Z,16.60
2018-10-11T23:20:02.752Z,18.60
2018-10-11T23:22:31.384Z,17.40
2018-10-11T23:24:59.874Z,16.33
2018-10-11T23:27:28.504Z,17.57
2018-10-11T23:29:57.306Z,17.10
2018-10-11T23:32:25.874Z,16.90
2018-10-11T23:34:54.491Z,16.20
2018-10-11T23:37:22.986Z,17.40
2018-10-11T23:39:51.371Z,17.43
2018-10-11T23:42:19.828Z,16.60
2018-10-11T23:44:48.440Z,17.13
2018-10-11T23:47:17.143Z,16.87
2018-10-11T23:49:45.632Z,17.13
2018-10-11T23:52:14.364Z,16.43
2018-10-11T23:54:42.846Z,16.23
2018-10-11T23:57:11.559Z,16.20
2018-10-11T23:59:40.272Z,17.10
